Terminal Aerodrome Forecast
Issued by NWS

Home | Current Version | Previous Version | Text Only | Print | Product List | Glossary Off
Versions: 1 2 3 4 5 6 7 8 9 10 11 12 13

000
FTUS41 KCLE 212300
TAFFDY
TAF
KFDY 212329Z 2200/2224 27010KT P6SM FEW050 SCT090
     FM220900 26008KT P6SM VCSH BKN050 OVC090
     FM221100 33010KT P6SM BKN090
     FM221800 34012G20KT P6SM FEW040=

USA.gov is the U.S. government's official web portal to all federal, state and local government web resources and services.